DAL2840 KABQ-KSLC
Flight info
| Callsign | DAL2840 |
|---|---|
| Flight time | N/A |
| Altitude | 38000 |
| Route | ATOMK JNC HELPR PITTT2 |
| Aircraft | A319/M-SDE3FGHIRWY/LB1 |
Departure
| Time | 2026-05-07 18:41 |
|---|---|
| Airport | Albuquerque International Sunport (KABQ) |
Arrival
| Time | N/A |
|---|---|
| Airport | Salt Lake City International Airport (KSLC) |
| Time | Latitude | Longitude | Altitude | Speed | Heading |
|---|---|---|---|---|---|
| 2026-05-07 18:27 | 35.04735 | -106.61398 | 5316 ft | 0 kts | 270° |
| 2026-05-07 18:35 | 35.04735 | -106.61372 | 5320 ft | 4 kts | 270° |
| 2026-05-07 18:35 | 35.04734 | -106.61340 | 5316 ft | 3 kts | 270° |
| 2026-05-07 18:35 | 35.04734 | -106.61337 | 5316 ft | 0 kts | 270° |
| 2026-05-07 18:37 | 35.04734 | -106.61338 | 5316 ft | 0 kts | 265° |
| 2026-05-07 18:37 | 35.04733 | -106.61338 | 5316 ft | 0 kts | 257° |
| 2026-05-07 18:37 | 35.04729 | -106.61339 | 5314 ft | 1 kts | 205° |
| 2026-05-07 18:37 | 35.04703 | -106.61325 | 5320 ft | 7 kts | 153° |
| 2026-05-07 18:38 | 35.04643 | -106.61312 | 5317 ft | 11 kts | 185° |
| 2026-05-07 18:38 | 35.04567 | -106.61371 | 5317 ft | 15 kts | 236° |
| 2026-05-07 18:38 | 35.04555 | -106.61492 | 5321 ft | 15 kts | 270° |
| 2026-05-07 18:38 | 35.04556 | -106.61631 | 5321 ft | 18 kts | 270° |
| 2026-05-07 18:39 | 35.04557 | -106.61779 | 5321 ft | 17 kts | 270° |
| 2026-05-07 18:39 | 35.04558 | -106.61930 | 5321 ft | 18 kts | 270° |
| 2026-05-07 18:39 | 35.04559 | -106.62079 | 5321 ft | 15 kts | 270° |
| 2026-05-07 18:39 | 35.04517 | -106.62139 | 5319 ft | 9 kts | 187° |
| 2026-05-07 18:40 | 35.04457 | -106.62138 | 5317 ft | 8 kts | 171° |
| 2026-05-07 18:40 | 35.04435 | -106.62079 | 5320 ft | 11 kts | 90° |
| 2026-05-07 18:40 | 35.04434 | -106.61826 | 5321 ft | 62 kts | 90° |
| 2026-05-07 18:40 | 35.04430 | -106.61013 | 5321 ft | 127 kts | 90° |
| 2026-05-07 18:41 | 35.04421 | -106.59722 | 5320 ft | 176 kts | 90° |
| 2026-05-07 18:41 | 35.04418 | -106.58135 | 5713 ft | 187 kts | 89° |
| 2026-05-07 18:41 | 35.04408 | -106.56555 | 6465 ft | 186 kts | 91° |
| 2026-05-07 18:41 | 35.04348 | -106.54974 | 7036 ft | 188 kts | 92° |
| 2026-05-07 18:42 | 35.04510 | -106.53330 | 7287 ft | 208 kts | 62° |
| 2026-05-07 18:42 | 35.05553 | -106.52027 | 7440 ft | 230 kts | 24° |
| 2026-05-07 18:42 | 35.07161 | -106.51728 | 7757 ft | 252 kts | 348° |
| 2026-05-07 18:42 | 35.08781 | -106.52708 | 8152 ft | 274 kts | 321° |
| 2026-05-07 18:43 | 35.10221 | -106.54296 | 8887 ft | 283 kts | 314° |
| 2026-05-07 18:43 | 35.11586 | -106.56055 | 9783 ft | 287 kts | 313° |
| 2026-05-07 18:43 | 35.12941 | -106.57877 | 10624 ft | 291 kts | 313° |
| 2026-05-07 18:43 | 35.14312 | -106.59713 | 11407 ft | 297 kts | 313° |
| 2026-05-07 18:44 | 35.15773 | -106.61638 | 11558 ft | 321 kts | 313° |
| 2026-05-07 18:44 | 35.17364 | -106.63697 | 11787 ft | 345 kts | 313° |
| 2026-05-07 18:44 | 35.19061 | -106.65866 | 12207 ft | 359 kts | 314° |
| 2026-05-07 18:44 | 35.20807 | -106.68078 | 12889 ft | 364 kts | 314° |
| 2026-05-07 18:45 | 35.22556 | -106.70279 | 13591 ft | 368 kts | 314° |
| 2026-05-07 18:45 | 35.24510 | -106.72339 | 14205 ft | 374 kts | 325° |
| 2026-05-07 18:45 | 35.26728 | -106.74033 | 14853 ft | 378 kts | 328° |
| 2026-05-07 18:45 | 35.28973 | -106.75732 | 15506 ft | 381 kts | 328° |
| 2026-05-07 18:46 | 35.31231 | -106.77451 | 16152 ft | 384 kts | 327° |
| 2026-05-07 18:46 | 35.33506 | -106.79191 | 16819 ft | 387 kts | 327° |
| 2026-05-07 18:46 | 35.35797 | -106.80947 | 17463 ft | 390 kts | 327° |
| 2026-05-07 18:46 | 35.38075 | -106.82696 | 18097 ft | 393 kts | 327° |
| 2026-05-07 18:47 | 35.40419 | -106.84456 | 18673 ft | 397 kts | 331° |
| 2026-05-07 18:47 | 35.42962 | -106.85816 | 19225 ft | 401 kts | 341° |
| 2026-05-07 18:47 | 35.45691 | -106.86601 | 19768 ft | 406 kts | 351° |
| 2026-05-07 18:47 | 35.48502 | -106.87029 | 20297 ft | 409 kts | 352° |
| 2026-05-07 18:48 | 35.51336 | -106.87458 | 20811 ft | 412 kts | 352° |
| 2026-05-07 18:48 | 35.54190 | -106.87897 | 21319 ft | 415 kts | 352° |
| 2026-05-07 18:48 | 35.57056 | -106.88343 | 21894 ft | 416 kts | 352° |
| 2026-05-07 18:48 | 35.59894 | -106.88789 | 22413 ft | 418 kts | 351° |
| 2026-05-07 18:49 | 35.62787 | -106.89241 | 22887 ft | 421 kts | 352° |
| 2026-05-07 18:49 | 35.65701 | -106.89694 | 23369 ft | 423 kts | 352° |
| 2026-05-07 18:49 | 35.68635 | -106.90147 | 23791 ft | 426 kts | 352° |
| 2026-05-07 18:49 | 35.71582 | -106.90599 | 24183 ft | 429 kts | 352° |
| 2026-05-07 18:50 | 35.74546 | -106.91055 | 24601 ft | 430 kts | 352° |
| 2026-05-07 18:50 | 35.77527 | -106.91513 | 24984 ft | 432 kts | 352° |
| 2026-05-07 18:50 | 35.80516 | -106.91971 | 25383 ft | 434 kts | 352° |
| 2026-05-07 18:50 | 35.83483 | -106.92432 | 25773 ft | 436 kts | 352° |
| 2026-05-07 18:51 | 35.86496 | -106.92902 | 26159 ft | 438 kts | 352° |
| 2026-05-07 18:51 | 35.89526 | -106.93376 | 26529 ft | 440 kts | 352° |
| 2026-05-07 18:51 | 35.92571 | -106.93853 | 26905 ft | 442 kts | 352° |
| 2026-05-07 18:51 | 35.95628 | -106.94331 | 27261 ft | 444 kts | 352° |
| 2026-05-07 18:52 | 35.98701 | -106.94813 | 27614 ft | 446 kts | 352° |
| 2026-05-07 18:52 | 36.00740 | -106.95133 | 27835 ft | 447 kts | 352° |
| 2026-05-07 18:52 | 36.03835 | -106.95610 | 28201 ft | 448 kts | 352° |
| 2026-05-07 18:52 | 36.07939 | -106.96252 | 28658 ft | 450 kts | 348° |
| 2026-05-07 18:53 | 36.10897 | -106.97467 | 28975 ft | 450 kts | 332° |
| 2026-05-07 18:53 | 36.13405 | -106.99763 | 29270 ft | 451 kts | 317° |
| 2026-05-07 18:53 | 36.15722 | -107.02385 | 29613 ft | 452 kts | 317° |
| 2026-05-07 18:53 | 36.18033 | -107.05004 | 30072 ft | 450 kts | 317° |
| 2026-05-07 18:54 | 36.19562 | -107.06738 | 30338 ft | 449 kts | 318° |
| 2026-05-07 18:54 | 36.21971 | -107.09194 | 30685 ft | 449 kts | 327° |
| 2026-05-07 18:54 | 36.24728 | -107.10983 | 31055 ft | 448 kts | 335° |
| 2026-05-07 18:54 | 36.27548 | -107.12603 | 31460 ft | 446 kts | 335° |
| 2026-05-07 18:55 | 36.31273 | -107.14733 | 31982 ft | 445 kts | 335° |
| 2026-05-07 18:55 | 36.34077 | -107.16336 | 32370 ft | 443 kts | 335° |
| 2026-05-07 18:55 | 36.35969 | -107.17423 | 32636 ft | 443 kts | 335° |
| 2026-05-07 18:55 | 36.39664 | -107.19550 | 33161 ft | 442 kts | 335° |
| 2026-05-07 18:56 | 36.41507 | -107.20613 | 33417 ft | 441 kts | 335° |
| 2026-05-07 18:56 | 36.44285 | -107.22220 | 33808 ft | 440 kts | 335° |
| 2026-05-07 18:56 | 36.47058 | -107.23823 | 34213 ft | 439 kts | 335° |
| 2026-05-07 18:56 | 36.49816 | -107.25418 | 34575 ft | 437 kts | 335° |
| 2026-05-07 18:57 | 36.52572 | -107.27012 | 34915 ft | 436 kts | 334° |
| 2026-05-07 18:57 | 36.55325 | -107.28608 | 35242 ft | 436 kts | 334° |
| 2026-05-07 18:57 | 36.58073 | -107.30203 | 35556 ft | 436 kts | 334° |
| 2026-05-07 18:57 | 36.61710 | -107.32308 | 35956 ft | 435 kts | 334° |
| 2026-05-07 18:58 | 36.63529 | -107.33361 | 36153 ft | 435 kts | 334° |
| 2026-05-07 18:58 | 36.66269 | -107.34951 | 36444 ft | 435 kts | 334° |
| 2026-05-07 18:58 | 36.69003 | -107.36541 | 36760 ft | 434 kts | 333° |
| 2026-05-07 18:58 | 36.71737 | -107.38130 | 37067 ft | 433 kts | 333° |
| 2026-05-07 18:59 | 36.74463 | -107.39717 | 37345 ft | 432 kts | 333° |
| 2026-05-07 18:59 | 36.77185 | -107.41301 | 37609 ft | 432 kts | 334° |
| 2026-05-07 18:59 | 36.79906 | -107.42882 | 37876 ft | 432 kts | 334° |
| 2026-05-07 18:59 | 36.82631 | -107.44469 | 38081 ft | 432 kts | 333° |
| 2026-05-07 19:00 | 36.85350 | -107.46057 | 38126 ft | 432 kts | 333° |
| 2026-05-07 19:00 | 36.90751 | -107.49216 | 38143 ft | 431 kts | 333° |
| 2026-05-07 19:01 | 36.96174 | -107.52388 | 38163 ft | 430 kts | 333° |
| 2026-05-07 19:01 | 37.01586 | -107.55560 | 38184 ft | 430 kts | 333° |
| 2026-05-07 19:02 | 37.07002 | -107.58744 | 38200 ft | 430 kts | 333° |
| 2026-05-07 19:02 | 37.12416 | -107.61924 | 38221 ft | 430 kts | 333° |
| 2026-05-07 19:03 | 37.17801 | -107.65094 | 38228 ft | 430 kts | 333° |
| 2026-05-07 19:03 | 37.23220 | -107.68297 | 38231 ft | 431 kts | 333° |
| 2026-05-07 19:04 | 37.28639 | -107.71503 | 38148 ft | 431 kts | 333° |
| 2026-05-07 19:04 | 37.34061 | -107.74715 | 38145 ft | 430 kts | 334° |
| 2026-05-07 19:05 | 37.39435 | -107.77901 | 38151 ft | 430 kts | 334° |
| 2026-05-07 19:05 | 37.44846 | -107.81109 | 38158 ft | 429 kts | 333° |
| 2026-05-07 19:06 | 37.50242 | -107.84323 | 38154 ft | 429 kts | 334° |
| 2026-05-07 19:06 | 37.58325 | -107.89147 | 38168 ft | 428 kts | 334° |
| 2026-05-07 19:07 | 37.63673 | -107.92335 | 38196 ft | 427 kts | 334° |
| 2026-05-07 19:07 | 37.69040 | -107.95538 | 38221 ft | 427 kts | 334° |
| 2026-05-07 19:08 | 37.74399 | -107.98749 | 38258 ft | 426 kts | 334° |
| 2026-05-07 19:08 | 37.79744 | -108.01968 | 38284 ft | 425 kts | 334° |
| 2026-05-07 19:09 | 37.85081 | -108.05174 | 38300 ft | 424 kts | 334° |
| 2026-05-07 19:09 | 37.90375 | -108.08356 | 38293 ft | 424 kts | 334° |
| 2026-05-07 19:10 | 37.95701 | -108.11566 | 38292 ft | 424 kts | 334° |
| 2026-05-07 19:10 | 37.98360 | -108.13169 | 38154 ft | 423 kts | 334° |
| 2026-05-07 19:10 | 38.01016 | -108.14773 | 38152 ft | 423 kts | 334° |
| 2026-05-07 19:11 | 38.06324 | -108.17988 | 38145 ft | 423 kts | 334° |
| 2026-05-07 19:11 | 38.11591 | -108.21188 | 38145 ft | 422 kts | 334° |
| 2026-05-07 19:12 | 38.16892 | -108.24403 | 38151 ft | 422 kts | 334° |
| 2026-05-07 19:12 | 38.22187 | -108.27615 | 38151 ft | 421 kts | 334° |